60MD weather

Walter Reed National Medical Center Heliport
Bethesda, Maryland, United States

Public forecast

Using degrees Fahrenheit for public forecast. Weather courtesy of forecast.io.

METAR (pilot weather report)

Closest report is College Park Airport, 8.2 nm (15.1 km) E. Retrieved 2019/05/27 01:43 UTC (0 seconds ago):

KCGS 270143Z AUTO 00000KT 10SM SCT090 26/20 A2991 RMK AO1 T02640202

TAF (pilot weather forecast)

Forecast is more than 12 hours old.

Closest forecast is Ronald Reagan Washington National Airport, 9.3 nm (17.2 km) SSE. Retrieved 2019/05/26 00:27 UTC (1 day ago):

TAF KDCA 262323Z 2700/2806 22006KT P6SM -TSRA SCT050CB BKN110 TEMPO 2701/2704 3SM TSRA BKN050CB FM270400 00000KT P6SM SHRA VCTS SCT040CB OVC080 FM270700 34004KT P6SM SCT050 BKN080 FM271700 35006KT P6SM FEW040 SCT060 FM280000 02005KT P6SM SCT100 FM280500 00000KT P6SM BKN140